sensor_id;sensor_type;location;lat;lon;timestamp;pressure;altitude;pressure_sealevel;temperature;humidity
61524;BME280;47393;38.758;-9.164;2022-11-15T00:01:59;100590.22;;;16.06;100.00
61524;BME280;47393;38.758;-9.164;2022-11-15T00:04:19;100591.91;;;16.07;100.00
61524;BME280;47393;38.758;-9.164;2022-11-15T00:06:37;100578.31;;;16.10;100.00
61524;BME280;47393;38.758;-9.164;2022-11-15T00:09:00;100580.97;;;16.10;100.00
61524;BME280;47393;38.758;-9.164;2022-11-15T00:11:20;100576.50;;;16.11;100.00
61524;BME280;47393;38.758;-9.164;2022-11-15T00:13:39;100574.84;;;16.09;100.00
61524;BME280;47393;38.758;-9.164;2022-11-15T00:15:59;100578.16;;;16.12;100.00
61524;BME280;47393;38.758;-9.164;2022-11-15T00:18:18;100574.69;;;16.11;100.00
61524;BME280;47393;38.758;-9.164;2022-11-15T00:20:37;100585.69;;;16.16;100.00
61524;BME280;47393;38.758;-9.164;2022-11-15T00:22:56;100574.69;;;16.11;100.00
61524;BME280;47393;38.758;-9.164;2022-11-15T00:25:15;100576.03;;;16.15;100.00
61524;BME280;47393;38.758;-9.164;2022-11-15T00:27:34;100576.53;;;16.19;100.00
61524;BME280;47393;38.758;-9.164;2022-11-15T00:29:53;100581.56;;;16.22;100.00
61524;BME280;47393;38.758;-9.164;2022-11-15T00:32:12;100578.44;;;16.26;100.00
61524;BME280;47393;38.758;-9.164;2022-11-15T00:34:31;100582.44;;;16.31;100.00
61524;BME280;47393;38.758;-9.164;2022-11-15T00:36:51;100582.44;;;16.31;100.00
61524;BME280;47393;38.758;-9.164;2022-11-15T00:39:10;100580.06;;;16.27;100.00
61524;BME280;47393;38.758;-9.164;2022-11-15T00:41:29;100582.69;;;16.19;100.00
61524;BME280;47393;38.758;-9.164;2022-11-15T00:43:49;100583.69;;;16.18;100.00
61524;BME280;47393;38.758;-9.164;2022-11-15T00:46:09;100573.63;;;16.04;100.00
61524;BME280;47393;38.758;-9.164;2022-11-15T00:48:28;100564.25;;;15.91;100.00
61524;BME280;47393;38.758;-9.164;2022-11-15T00:50:48;100558.75;;;15.85;100.00
61524;BME280;47393;38.758;-9.164;2022-11-15T00:53:07;100557.28;;;15.72;100.00
61524;BME280;47393;38.758;-9.164;2022-11-15T00:55:26;100558.75;;;15.67;100.00
61524;BME280;47393;38.758;-9.164;2022-11-15T00:57:45;100569.28;;;15.58;100.00
61524;BME280;47393;38.758;-9.164;2022-11-15T01:00:05;100564.91;;;15.49;100.00
61524;BME280;47393;38.758;-9.164;2022-11-15T01:02:24;100560.81;;;15.37;100.00
61524;BME280;47393;38.758;-9.164;2022-11-15T01:04:43;100559.81;;;15.38;100.00
61524;BME280;47393;38.758;-9.164;2022-11-15T01:07:02;100567.16;;;15.44;100.00
61524;BME280;47393;38.758;-9.164;2022-11-15T01:09:21;100554.91;;;15.43;100.00
61524;BME280;47393;38.758;-9.164;2022-11-15T01:11:40;100549.22;;;15.38;100.00
61524;BME280;47393;38.758;-9.164;2022-11-15T01:13:59;100547.63;;;15.27;100.00
61524;BME280;47393;38.758;-9.164;2022-11-15T01:16:18;100550.38;;;15.17;100.00
61524;BME280;47393;38.758;-9.164;2022-11-15T01:18:37;100546.09;;;15.07;100.00
61524;BME280;47393;38.758;-9.164;2022-11-15T01:20:57;100547.97;;;14.96;100.00
61524;BME280;47393;38.758;-9.164;2022-11-15T01:23:16;100546.75;;;14.91;100.00
61524;BME280;47393;38.758;-9.164;2022-11-15T01:25:34;100541.38;;;14.82;100.00
61524;BME280;47393;38.758;-9.164;2022-11-15T01:27:53;100536.06;;;14.82;100.00
61524;BME280;47393;38.758;-9.164;2022-11-15T01:30:12;100531.75;;;14.81;100.00
61524;BME280;47393;38.758;-9.164;2022-11-15T01:32:31;100538.34;;;14.77;100.00
61524;BME280;47393;38.758;-9.164;2022-11-15T01:34:50;100534.63;;;14.70;100.00
61524;BME280;47393;38.758;-9.164;2022-11-15T01:37:09;100530.81;;;14.73;100.00
61524;BME280;47393;38.758;-9.164;2022-11-15T01:39:29;100526.38;;;14.73;100.00
61524;BME280;47393;38.758;-9.164;2022-11-15T01:41:48;100523.63;;;14.65;100.00
61524;BME280;47393;38.758;-9.164;2022-11-15T01:46:46;100519.16;;;14.65;100.00
61524;BME280;47393;38.758;-9.164;2022-11-15T01:49:11;100518.03;;;14.68;100.00
61524;BME280;47393;38.758;-9.164;2022-11-15T01:51:31;100518.03;;;14.68;100.00
61524;BME280;47393;38.758;-9.164;2022-11-15T01:53:52;100521.13;;;14.63;100.00
61524;BME280;47393;38.758;-9.164;2022-11-15T01:56:20;100518.91;;;14.59;100.00
61524;BME280;47393;38.758;-9.164;2022-11-15T01:58:40;100512.59;;;14.60;100.00
61524;BME280;47393;38.758;-9.164;2022-11-15T02:01:00;100515.53;;;14.66;100.00
61524;BME280;47393;38.758;-9.164;2022-11-15T02:03:18;100510.81;;;14.60;100.00
61524;BME280;47393;38.758;-9.164;2022-11-15T02:05:39;100514.03;;;14.54;100.00
61524;BME280;47393;38.758;-9.164;2022-11-15T02:07:59;100509.72;;;14.53;100.00
61524;BME280;47393;38.758;-9.164;2022-11-15T02:10:19;100508.22;;;14.50;100.00
61524;BME280;47393;38.758;-9.164;2022-11-15T02:12:39;100505.56;;;14.50;100.00
61524;BME280;47393;38.758;-9.164;2022-11-15T02:14:59;100500.78;;;14.64;100.00
61524;BME280;47393;38.758;-9.164;2022-11-15T02:24:35;100494.69;;;14.53;100.00
61524;BME280;47393;38.758;-9.164;2022-11-15T02:30:22;100491.16;;;14.35;100.00
61524;BME280;47393;38.758;-9.164;2022-11-15T02:32:21;100484.19;;;14.34;100.00
61524;BME280;47393;38.758;-9.164;2022-11-15T02:34:53;100479.00;;;14.42;100.00
61524;BME280;47393;38.758;-9.164;2022-11-15T02:39:56;100480.91;;;14.50;100.00
61524;BME280;47393;38.758;-9.164;2022-11-15T02:42:19;100470.84;;;14.53;100.00
61524;BME280;47393;38.758;-9.164;2022-11-15T02:44:58;100467.47;;;14.61;100.00
61524;BME280;47393;38.758;-9.164;2022-11-15T02:47:22;100457.97;;;14.68;100.00
61524;BME280;47393;38.758;-9.164;2022-11-15T02:49:46;100452.66;;;14.68;100.00
61524;BME280;47393;38.758;-9.164;2022-11-15T02:52:06;100444.47;;;14.72;100.00
61524;BME280;47393;38.758;-9.164;2022-11-15T02:54:54;100447.31;;;14.78;100.00
61524;BME280;47393;38.758;-9.164;2022-11-15T02:57:15;100434.22;;;14.77;100.00
61524;BME280;47393;38.758;-9.164;2022-11-15T02:59:47;100425.97;;;14.80;100.00
61524;BME280;47393;38.758;-9.164;2022-11-15T03:04:56;100428.94;;;14.95;100.00
61524;BME280;47393;38.758;-9.164;2022-11-15T03:07:28;100426.22;;;15.04;100.00
61524;BME280;47393;38.758;-9.164;2022-11-15T03:09:51;100426.81;;;15.16;100.00
61524;BME280;47393;38.758;-9.164;2022-11-15T03:12:20;100422.88;;;15.20;100.00
61524;BME280;47393;38.758;-9.164;2022-11-15T03:14:53;100419.69;;;15.17;100.00
61524;BME280;47393;38.758;-9.164;2022-11-15T03:19:56;100423.75;;;15.29;100.00
61524;BME280;47393;38.758;-9.164;2022-11-15T03:22:16;100427.00;;;15.41;100.00
61524;BME280;47393;38.758;-9.164;2022-11-15T03:24:36;100422.72;;;15.48;100.00
61524;BME280;47393;38.758;-9.164;2022-11-15T03:26:57;100429.00;;;15.47;100.00
61524;BME280;47393;38.758;-9.164;2022-11-15T03:29:26;100422.22;;;15.45;100.00
61524;BME280;47393;38.758;-9.164;2022-11-15T03:31:51;100425.06;;;15.51;100.00
61524;BME280;47393;38.758;-9.164;2022-11-15T03:34:15;100420.78;;;15.50;100.00
61524;BME280;47393;38.758;-9.164;2022-11-15T03:36:38;100420.25;;;15.47;100.00
61524;BME280;47393;38.758;-9.164;2022-11-15T03:38:58;100413.97;;;15.48;100.00
61524;BME280;47393;38.758;-9.164;2022-11-15T03:41:23;100418.47;;;15.55;100.00
61524;BME280;47393;38.758;-9.164;2022-11-15T03:44:06;100407.53;;;15.50;100.00
61524;BME280;47393;38.758;-9.164;2022-11-15T03:46:24;100406.81;;;15.48;100.00
61524;BME280;47393;38.758;-9.164;2022-11-15T03:48:52;100403.13;;;15.41;100.00
61524;BME280;47393;38.758;-9.164;2022-11-15T03:51:12;100403.75;;;15.35;100.00
61524;BME280;47393;38.758;-9.164;2022-11-15T03:53:32;100397.59;;;15.26;100.00
61524;BME280;47393;38.758;-9.164;2022-11-15T03:55:50;100397.75;;;15.25;100.00
61524;BME280;47393;38.758;-9.164;2022-11-15T03:58:09;100394.19;;;15.16;100.00
61524;BME280;47393;38.758;-9.164;2022-11-15T04:00:29;100388.44;;;15.20;100.00
61524;BME280;47393;38.758;-9.164;2022-11-15T04:02:48;100392.72;;;15.21;100.00
61524;BME280;47393;38.758;-9.164;2022-11-15T04:05:07;100381.16;;;15.22;100.00
61524;BME280;47393;38.758;-9.164;2022-11-15T04:07:26;100390.59;;;15.25;100.00
61524;BME280;47393;38.758;-9.164;2022-11-15T04:09:45;100393.63;;;15.30;100.00
61524;BME280;47393;38.758;-9.164;2022-11-15T04:12:22;100390.84;;;15.32;100.00
61524;BME280;47393;38.758;-9.164;2022-11-15T04:14:50;100394.31;;;15.32;100.00
61524;BME280;47393;38.758;-9.164;2022-11-15T04:17:09;100399.13;;;15.37;100.00
61524;BME280;47393;38.758;-9.164;2022-11-15T04:19:28;100393.50;;;15.40;100.00
61524;BME280;47393;38.758;-9.164;2022-11-15T04:22:07;100397.53;;;15.44;100.00
61524;BME280;47393;38.758;-9.164;2022-11-15T04:24:45;100400.88;;;15.46;100.00
61524;BME280;47393;38.758;-9.164;2022-11-15T04:27:07;100393.22;;;15.43;100.00
61524;BME280;47393;38.758;-9.164;2022-11-15T04:29:29;100389.22;;;15.39;100.00
61524;BME280;47393;38.758;-9.164;2022-11-15T04:31:54;100399.13;;;15.37;100.00
61524;BME280;47393;38.758;-9.164;2022-11-15T04:34:14;100389.38;;;15.37;100.00
61524;BME280;47393;38.758;-9.164;2022-11-15T04:36:33;100395.44;;;15.30;100.00
61524;BME280;47393;38.758;-9.164;2022-11-15T04:39:11;100391.13;;;15.29;100.00
61524;BME280;47393;38.758;-9.164;2022-11-15T04:41:30;100391.44;;;15.26;100.00
61524;BME280;47393;38.758;-9.164;2022-11-15T04:43:49;100386.81;;;15.28;100.00
61524;BME280;47393;38.758;-9.164;2022-11-15T04:46:08;100384.66;;;15.23;100.00
61524;BME280;47393;38.758;-9.164;2022-11-15T04:48:27;100390.75;;;15.23;100.00
61524;BME280;47393;38.758;-9.164;2022-11-15T04:50:47;100387.97;;;15.25;100.00
61524;BME280;47393;38.758;-9.164;2022-11-15T04:53:06;100383.47;;;15.26;100.00
61524;BME280;47393;38.758;-9.164;2022-11-15T04:55:25;100373.88;;;15.25;100.00
61524;BME280;47393;38.758;-9.164;2022-11-15T04:57:44;100383.94;;;15.21;100.00
61524;BME280;47393;38.758;-9.164;2022-11-15T05:00:07;100381.84;;;15.25;100.00
61524;BME280;47393;38.758;-9.164;2022-11-15T05:02:27;100379.03;;;15.26;100.00
61524;BME280;47393;38.758;-9.164;2022-11-15T05:04:45;100374.25;;;15.30;100.00
61524;BME280;47393;38.758;-9.164;2022-11-15T05:07:06;100373.63;;;15.36;100.00
61524;BME280;47393;38.758;-9.164;2022-11-15T05:09:25;100374.63;;;15.35;100.00
61524;BME280;47393;38.758;-9.164;2022-11-15T05:11:44;100382.63;;;15.43;100.00
61524;BME280;47393;38.758;-9.164;2022-11-15T05:14:03;100392.44;;;15.51;100.00
61524;BME280;47393;38.758;-9.164;2022-11-15T05:16:22;100387.50;;;15.56;100.00
61524;BME280;47393;38.758;-9.164;2022-11-15T05:18:41;100392.00;;;15.64;100.00
61524;BME280;47393;38.758;-9.164;2022-11-15T05:21:07;100385.56;;;15.66;100.00
61524;BME280;47393;38.758;-9.164;2022-11-15T05:23:27;100385.72;;;15.65;100.00
61524;BME280;47393;38.758;-9.164;2022-11-15T05:25:46;100386.22;;;15.68;100.00
61524;BME280;47393;38.758;-9.164;2022-11-15T05:28:05;100379.13;;;15.69;100.00
61524;BME280;47393;38.758;-9.164;2022-11-15T05:30:23;100382.44;;;15.71;100.00
61524;BME280;47393;38.758;-9.164;2022-11-15T05:32:43;100384.28;;;15.70;100.00
61524;BME280;47393;38.758;-9.164;2022-11-15T05:35:02;100383.59;;;15.68;100.00
61524;BME280;47393;38.758;-9.164;2022-11-15T05:37:24;100381.78;;;15.69;100.00
61524;BME280;47393;38.758;-9.164;2022-11-15T05:39:43;100387.75;;;15.71;100.00
61524;BME280;47393;38.758;-9.164;2022-11-15T05:42:06;100386.91;;;15.70;100.00
61524;BME280;47393;38.758;-9.164;2022-11-15T05:44:27;100389.75;;;15.69;100.00
61524;BME280;47393;38.758;-9.164;2022-11-15T05:46:47;100391.03;;;15.65;100.00
61524;BME280;47393;38.758;-9.164;2022-11-15T05:49:07;100388.72;;;15.70;100.00
61524;BME280;47393;38.758;-9.164;2022-11-15T05:51:28;100384.38;;;15.61;100.00
61524;BME280;47393;38.758;-9.164;2022-11-15T05:53:48;100388.25;;;15.74;100.00
61524;BME280;47393;38.758;-9.164;2022-11-15T05:56:07;100379.88;;;15.79;100.00
61524;BME280;47393;38.758;-9.164;2022-11-15T05:58:27;100377.38;;;15.86;100.00
61524;BME280;47393;38.758;-9.164;2022-11-15T06:00:46;100376.63;;;15.94;100.00
61524;BME280;47393;38.758;-9.164;2022-11-15T06:03:05;100371.97;;;15.96;100.00
61524;BME280;47393;38.758;-9.164;2022-11-15T06:05:24;100372.63;;;15.89;100.00
61524;BME280;47393;38.758;-9.164;2022-11-15T06:07:43;100369.00;;;15.99;100.00
61524;BME280;47393;38.758;-9.164;2022-11-15T06:10:02;100367.03;;;16.01;100.00
61524;BME280;47393;38.758;-9.164;2022-11-15T06:12:21;100378.25;;;15.95;100.00
61524;BME280;47393;38.758;-9.164;2022-11-15T06:14:40;100374.56;;;15.79;100.00
61524;BME280;47393;38.758;-9.164;2022-11-15T06:16:59;100372.19;;;15.76;100.00
61524;BME280;47393;38.758;-9.164;2022-11-15T06:19:18;100372.97;;;15.68;100.00
61524;BME280;47393;38.758;-9.164;2022-11-15T06:21:37;100377.25;;;15.61;100.00
61524;BME280;47393;38.758;-9.164;2022-11-15T06:23:59;100378.91;;;15.62;100.00
61524;BME280;47393;38.758;-9.164;2022-11-15T06:26:17;100375.72;;;15.58;100.00
61524;BME280;47393;38.758;-9.164;2022-11-15T06:28:36;100377.03;;;15.54;100.00
61524;BME280;47393;38.758;-9.164;2022-11-15T06:30:56;100376.91;;;15.56;100.00
61524;BME280;47393;38.758;-9.164;2022-11-15T06:33:15;100375.72;;;15.58;100.00
61524;BME280;47393;38.758;-9.164;2022-11-15T06:35:34;100372.16;;;15.68;100.00
61524;BME280;47393;38.758;-9.164;2022-11-15T06:37:53;100383.25;;;15.71;100.00
61524;BME280;47393;38.758;-9.164;2022-11-15T06:40:13;100380.44;;;15.73;100.00
61524;BME280;47393;38.758;-9.164;2022-11-15T06:42:32;100382.53;;;15.79;100.00
61524;BME280;47393;38.758;-9.164;2022-11-15T06:44:51;100382.84;;;15.84;100.00
61524;BME280;47393;38.758;-9.164;2022-11-15T06:47:10;100387.22;;;15.94;100.00
61524;BME280;47393;38.758;-9.164;2022-11-15T06:49:29;100384.09;;;15.98;100.00
61524;BME280;47393;38.758;-9.164;2022-11-15T06:51:48;100377.81;;;15.99;100.00
61524;BME280;47393;38.758;-9.164;2022-11-15T06:54:06;100382.41;;;15.97;100.00
61524;BME280;47393;38.758;-9.164;2022-11-15T06:56:26;100383.97;;;16.08;100.00
61524;BME280;47393;38.758;-9.164;2022-11-15T06:58:45;100386.94;;;16.05;100.00
61524;BME280;47393;38.758;-9.164;2022-11-15T07:01:09;100390.41;;;16.05;100.00
61524;BME280;47393;38.758;-9.164;2022-11-15T07:03:28;100394.56;;;16.08;100.00
61524;BME280;47393;38.758;-9.164;2022-11-15T07:05:54;100391.44;;;16.13;100.00
61524;BME280;47393;38.758;-9.164;2022-11-15T07:08:14;100397.28;;;16.16;100.00
61524;BME280;47393;38.758;-9.164;2022-11-15T07:10:33;100384.00;;;16.16;100.00
61524;BME280;47393;38.758;-9.164;2022-11-15T07:12:52;100395.28;;;16.18;100.00
61524;BME280;47393;38.758;-9.164;2022-11-15T07:15:11;100382.31;;;16.15;100.00
61524;BME280;47393;38.758;-9.164;2022-11-15T07:17:30;100395.75;;;16.14;100.00
61524;BME280;47393;38.758;-9.164;2022-11-15T07:19:49;100391.22;;;16.06;100.00
61524;BME280;47393;38.758;-9.164;2022-11-15T07:22:08;100391.22;;;16.06;100.00
61524;BME280;47393;38.758;-9.164;2022-11-15T07:24:27;100394.41;;;16.09;100.00
61524;BME280;47393;38.758;-9.164;2022-11-15T07:26:47;100404.75;;;16.21;100.00
61524;BME280;47393;38.758;-9.164;2022-11-15T07:29:06;100379.53;;;16.25;100.00
61524;BME280;47393;38.758;-9.164;2022-11-15T07:31:25;100396.31;;;16.34;100.00
61524;BME280;47393;38.758;-9.164;2022-11-15T07:33:44;100393.69;;;16.42;100.00
61524;BME280;47393;38.758;-9.164;2022-11-15T07:36:03;100404.84;;;16.54;100.00
61524;BME280;47393;38.758;-9.164;2022-11-15T07:38:23;100404.50;;;16.57;100.00
61524;BME280;47393;38.758;-9.164;2022-11-15T07:40:42;100395.88;;;16.55;100.00
61524;BME280;47393;38.758;-9.164;2022-11-15T07:43:02;100395.69;;;16.65;100.00
61524;BME280;47393;38.758;-9.164;2022-11-15T07:45:23;100393.56;;;16.68;100.00
61524;BME280;47393;38.758;-9.164;2022-11-15T07:47:45;100390.91;;;16.68;100.00
61524;BME280;47393;38.758;-9.164;2022-11-15T07:50:04;100398.91;;;16.76;100.00
61524;BME280;47393;38.758;-9.164;2022-11-15T07:52:23;100392.75;;;16.84;100.00
61524;BME280;47393;38.758;-9.164;2022-11-15T07:54:42;100399.72;;;16.77;100.00
61524;BME280;47393;38.758;-9.164;2022-11-15T07:57:02;100401.56;;;16.76;100.00
61524;BME280;47393;38.758;-9.164;2022-11-15T07:59:22;100401.03;;;16.73;100.00
61524;BME280;47393;38.758;-9.164;2022-11-15T08:01:42;100408.69;;;16.84;100.00
61524;BME280;47393;38.758;-9.164;2022-11-15T08:04:22;100400.09;;;17.15;100.00
61524;BME280;47393;38.758;-9.164;2022-11-15T08:06:41;100400.38;;;17.45;100.00
61524;BME280;47393;38.758;-9.164;2022-11-15T08:09:00;100411.25;;;17.83;100.00
61524;BME280;47393;38.758;-9.164;2022-11-15T08:11:19;100422.84;;;18.38;100.00
61524;BME280;47393;38.758;-9.164;2022-11-15T08:13:38;100421.44;;;18.82;100.00
61524;BME280;47393;38.758;-9.164;2022-11-15T08:16:01;100422.59;;;18.56;100.00
61524;BME280;47393;38.758;-9.164;2022-11-15T08:18:21;100424.28;;;18.57;100.00
61524;BME280;47393;38.758;-9.164;2022-11-15T08:20:43;100434.91;;;18.26;100.00
61524;BME280;47393;38.758;-9.164;2022-11-15T08:23:03;100441.50;;;18.07;100.00
61524;BME280;47393;38.758;-9.164;2022-11-15T08:25:23;100442.97;;;18.09;100.00
61524;BME280;47393;38.758;-9.164;2022-11-15T08:27:47;100440.94;;;18.20;100.00
61524;BME280;47393;38.758;-9.164;2022-11-15T08:30:11;100443.28;;;18.77;100.00
61524;BME280;47393;38.758;-9.164;2022-11-15T08:32:34;100447.94;;;18.75;100.00
61524;BME280;47393;38.758;-9.164;2022-11-15T08:34:56;100447.63;;;18.78;100.00
61524;BME280;47393;38.758;-9.164;2022-11-15T08:37:15;100461.22;;;18.60;100.00
61524;BME280;47393;38.758;-9.164;2022-11-15T08:39:35;100456.13;;;18.42;100.00
61524;BME280;47393;38.758;-9.164;2022-11-15T08:41:54;100452.38;;;18.28;100.00
61524;BME280;47393;38.758;-9.164;2022-11-15T08:44:14;100462.00;;;18.29;100.00
61524;BME280;47393;38.758;-9.164;2022-11-15T08:46:33;100463.34;;;18.25;100.00
61524;BME280;47393;38.758;-9.164;2022-11-15T08:48:52;100457.47;;;18.07;100.00
61524;BME280;47393;38.758;-9.164;2022-11-15T08:51:13;100452.78;;;18.09;100.00
61524;BME280;47393;38.758;-9.164;2022-11-15T08:53:33;100454.66;;;17.84;100.00
61524;BME280;47393;38.758;-9.164;2022-11-15T08:55:53;100453.19;;;17.73;100.00
61524;BME280;47393;38.758;-9.164;2022-11-15T08:58:15;100454.81;;;17.82;100.00
61524;BME280;47393;38.758;-9.164;2022-11-15T09:00:34;100449.03;;;17.78;100.00
61524;BME280;47393;38.758;-9.164;2022-11-15T09:02:55;100434.41;;;17.74;100.00
61524;BME280;47393;38.758;-9.164;2022-11-15T09:05:37;100457.13;;;17.85;100.00
61524;BME280;47393;38.758;-9.164;2022-11-15T09:08:00;100458.16;;;17.92;100.00
61524;BME280;47393;38.758;-9.164;2022-11-15T09:10:21;100450.47;;;18.06;100.00
61524;BME280;47393;38.758;-9.164;2022-11-15T09:12:40;100453.97;;;17.98;100.00
61524;BME280;47393;38.758;-9.164;2022-11-15T09:15:00;100455.50;;;17.92;100.00
61524;BME280;47393;38.758;-9.164;2022-11-15T09:17:21;100465.28;;;18.00;100.00
61524;BME280;47393;38.758;-9.164;2022-11-15T09:19:41;100458.00;;;17.94;100.00
61524;BME280;47393;38.758;-9.164;2022-11-15T09:22:21;100449.06;;;18.18;100.00
61524;BME280;47393;38.758;-9.164;2022-11-15T09:24:40;100454.66;;;18.40;100.00
61524;BME280;47393;38.758;-9.164;2022-11-15T09:26:59;100447.69;;;18.39;100.00
61524;BME280;47393;38.758;-9.164;2022-11-15T09:29:18;100445.78;;;18.16;100.00
61524;BME280;47393;38.758;-9.164;2022-11-15T09:31:37;100443.38;;;18.29;100.00
61524;BME280;47393;38.758;-9.164;2022-11-15T09:33:56;100449.06;;;18.18;100.00
61524;BME280;47393;38.758;-9.164;2022-11-15T09:36:16;100459.63;;;18.03;100.00
61524;BME280;47393;38.758;-9.164;2022-11-15T09:38:36;100442.50;;;18.06;100.00
61524;BME280;47393;38.758;-9.164;2022-11-15T09:46:33;100453.00;;;17.83;100.00
61524;BME280;47393;38.758;-9.164;2022-11-15T09:49:08;100445.56;;;17.61;100.00
61524;BME280;47393;38.758;-9.164;2022-11-15T09:51:23;100435.91;;;17.52;100.00
61524;BME280;47393;38.758;-9.164;2022-11-15T09:53:28;100447.28;;;17.29;100.00
61524;BME280;47393;38.758;-9.164;2022-11-15T10:00:22;100450.91;;;17.04;100.00
61524;BME280;47393;38.758;-9.164;2022-11-15T10:04:43;100446.94;;;17.08;100.00
61524;BME280;47393;38.758;-9.164;2022-11-15T10:06:51;100448.25;;;17.20;100.00
61524;BME280;47393;38.758;-9.164;2022-11-15T10:09:09;100435.78;;;17.29;100.00
61524;BME280;47393;38.758;-9.164;2022-11-15T10:11:20;100438.47;;;17.21;100.00
61524;BME280;47393;38.758;-9.164;2022-11-15T10:13:25;100444.94;;;17.10;100.00
61524;BME280;47393;38.758;-9.164;2022-11-15T10:15:34;100437.63;;;17.04;100.00
61524;BME280;47393;38.758;-9.164;2022-11-15T10:17:54;100438.28;;;17.06;100.00
61524;BME280;47393;38.758;-9.164;2022-11-15T10:20:10;100447.25;;;17.05;100.00
61524;BME280;47393;38.758;-9.164;2022-11-15T10:24:19;100445.94;;;16.92;100.00
61524;BME280;47393;38.758;-9.164;2022-11-15T10:26:22;100444.28;;;17.00;100.00
61524;BME280;47393;38.758;-9.164;2022-11-15T10:28:27;100451.25;;;17.09;100.00
61524;BME280;47393;38.758;-9.164;2022-11-15T10:30:38;100446.09;;;17.24;100.00
61524;BME280;47393;38.758;-9.164;2022-11-15T10:32:57;100445.44;;;17.30;100.00
61524;BME280;47393;38.758;-9.164;2022-11-15T10:38:12;100438.59;;;17.19;100.00
61524;BME280;47393;38.758;-9.164;2022-11-15T10:40:23;100437.97;;;17.25;100.00
61524;BME280;47393;38.758;-9.164;2022-11-15T10:42:32;100421.34;;;17.32;100.00
61524;BME280;47393;38.758;-9.164;2022-11-15T10:44:33;100416.38;;;17.28;100.00
61524;BME280;47393;38.758;-9.164;2022-11-15T10:46:44;100426.31;;;17.43;100.00
61524;BME280;47393;38.758;-9.164;2022-11-15T10:48:48;100415.34;;;17.46;100.00
61524;BME280;47393;38.758;-9.164;2022-11-15T10:50:50;100404.22;;;17.18;100.00
61524;BME280;47393;38.758;-9.164;2022-11-15T10:52:54;100413.88;;;17.27;100.00
61524;BME280;47393;38.758;-9.164;2022-11-15T10:57:15;100411.34;;;17.50;100.00
61524;BME280;47393;38.758;-9.164;2022-11-15T10:59:23;100409.66;;;17.57;100.00
61524;BME280;47393;38.758;-9.164;2022-11-15T11:01:26;100405.00;;;17.59;100.00
61524;BME280;47393;38.758;-9.164;2022-11-15T11:03:34;100416.13;;;17.63;100.00
61524;BME280;47393;38.758;-9.164;2022-11-15T11:05:39;100421.63;;;17.70;100.00
61524;BME280;47393;38.758;-9.164;2022-11-15T11:07:43;100419.16;;;17.60;100.00
61524;BME280;47393;38.758;-9.164;2022-11-15T11:10:19;100408.69;;;17.50;100.00
61524;BME280;47393;38.758;-9.164;2022-11-15T11:12:18;100407.69;;;17.51;100.00
61524;BME280;47393;38.758;-9.164;2022-11-15T11:14:31;100414.97;;;17.66;100.00
61524;BME280;47393;38.758;-9.164;2022-11-15T11:20:44;100410.34;;;17.43;100.00
61524;BME280;47393;38.758;-9.164;2022-11-15T11:22:55;100409.03;;;17.55;100.00
61524;BME280;47393;38.758;-9.164;2022-11-15T11:29:49;100391.84;;;17.74;100.00
61524;BME280;47393;38.758;-9.164;2022-11-15T11:34:12;100392.00;;;17.81;100.00
61524;BME280;47393;38.758;-9.164;2022-11-15T11:47:22;100380.16;;;17.92;100.00
61524;BME280;47393;38.758;-9.164;2022-11-15T11:51:53;100372.69;;;17.79;100.00
61524;BME280;47393;38.758;-9.164;2022-11-15T11:53:57;100374.50;;;17.87;100.00
61524;BME280;47393;38.758;-9.164;2022-11-15T11:56:02;100371.00;;;17.94;100.00
61524;BME280;47393;38.758;-9.164;2022-11-15T12:00:22;100366.50;;;17.95;100.00
61524;BME280;47393;38.758;-9.164;2022-11-15T12:02:34;100360.84;;;17.98;100.00
61524;BME280;47393;38.758;-9.164;2022-11-15T12:04:37;100352.22;;;17.96;100.00
61524;BME280;47393;38.758;-9.164;2022-11-15T12:06:59;100336.75;;;18.00;100.00
61524;BME280;47393;38.758;-9.164;2022-11-15T12:09:12;100353.88;;;17.97;100.00
61524;BME280;47393;38.758;-9.164;2022-11-15T12:13:34;100330.13;;;18.19;100.00
61524;BME280;47393;38.758;-9.164;2022-11-15T12:15:39;100328.56;;;18.32;100.00
61524;BME280;47393;38.758;-9.164;2022-11-15T12:17:42;100324.19;;;18.40;100.00
61524;BME280;47393;38.758;-9.164;2022-11-15T12:19:43;100338.78;;;18.44;100.00
61524;BME280;47393;38.758;-9.164;2022-11-15T12:21:44;100322.69;;;18.37;100.00
61524;BME280;47393;38.758;-9.164;2022-11-15T12:23:52;100327.06;;;18.53;100.00
61524;BME280;47393;38.758;-9.164;2022-11-15T12:26:05;100321.25;;;18.26;100.00
61524;BME280;47393;38.758;-9.164;2022-11-15T12:28:16;100312.75;;;18.31;100.00
61524;BME280;47393;38.758;-9.164;2022-11-15T12:30:20;100305.97;;;18.28;100.00
61524;BME280;47393;38.758;-9.164;2022-11-15T12:32:32;100297.97;;;18.28;100.00
61524;BME280;47393;38.758;-9.164;2022-11-15T12:34:37;100300.22;;;18.40;100.00
61524;BME280;47393;38.758;-9.164;2022-11-15T12:36:42;100297.28;;;18.49;100.00
61524;BME280;47393;38.758;-9.164;2022-11-15T12:39:00;100279.59;;;18.57;100.00
61524;BME280;47393;38.758;-9.164;2022-11-15T12:41:18;100278.97;;;18.31;100.00
61524;BME280;47393;38.758;-9.164;2022-11-15T12:47:26;100258.09;;;18.20;100.00
61524;BME280;47393;38.758;-9.164;2022-11-15T12:53:44;100248.97;;;18.14;100.00
61524;BME280;47393;38.758;-9.164;2022-11-15T13:02:39;100240.75;;;18.01;100.00
61524;BME280;47393;38.758;-9.164;2022-11-15T13:04:40;100239.91;;;18.01;100.00
61524;BME280;47393;38.758;-9.164;2022-11-15T13:06:50;100237.28;;;17.92;100.00
61524;BME280;47393;38.758;-9.164;2022-11-15T13:08:51;100257.59;;;17.93;100.00
61524;BME280;47393;38.758;-9.164;2022-11-15T13:10:54;100244.56;;;18.07;100.00